Market Bosworth, United Kingdom
Current Conditions -  °F | °C
As of 9:50 AM on Saturday 29 Nov 2014 (Local Time) from EGNX Reporting Station
Haze Haze  
Wind Chill: 44°   Ceiling: 500
Heat Index: 48°   Visibility: 1.2mi
Dew Point: 48°   Wind: 9mph
Humidity: 100%   Direction: 100°E
Pressure: 29.85"   Gusts: NA
Location:  52.62°N, 1.4°W
Report Text: EGNX 290950Z 10008KT 2000 BR OVC005 09/09 Q1011
Loading
Personal Weather Stations






























Interactive Weather Map New forecast layout! Learn more

10-Day Weather Forecast

Advertisements
Track Severe Weather on mobile